sensor_id;sensor_type;location;lat;lon;timestamp;pressure;altitude;pressure_sealevel;temperature;humidity
42887;BME280;29032;56.028;92.904;2024-03-06T00:02:47;99946.47;;;-3.52;37.67
42887;BME280;29032;56.028;92.904;2024-03-06T00:07:50;99942.63;;;-3.54;37.48
42887;BME280;29032;56.028;92.904;2024-03-06T00:12:52;99943.59;;;-3.70;37.60
42887;BME280;29032;56.028;92.904;2024-03-06T00:17:54;99933.22;;;-3.75;37.55
42887;BME280;29032;56.028;92.904;2024-03-06T00:23:01;99942.38;;;-3.69;37.60
42887;BME280;29032;56.028;92.904;2024-03-06T00:28:03;99942.09;;;-3.71;37.58
42887;BME280;29032;56.028;92.904;2024-03-06T00:33:06;99940.09;;;-3.70;37.23
42887;BME280;29032;56.028;92.904;2024-03-06T00:38:09;99951.25;;;-3.65;37.47
42887;BME280;29032;56.028;92.904;2024-03-06T00:43:11;99941.06;;;-3.64;37.30
42887;BME280;29032;56.028;92.904;2024-03-06T00:48:14;99943.28;;;-3.50;36.95
42887;BME280;29032;56.028;92.904;2024-03-06T00:53:17;99945.31;;;-3.41;37.05
42887;BME280;29032;56.028;92.904;2024-03-06T00:58:19;99952.94;;;-3.36;37.10
42887;BME280;29032;56.028;92.904;2024-03-06T01:03:21;99949.13;;;-3.17;37.01
42887;BME280;29032;56.028;92.904;2024-03-06T01:08:26;99949.56;;;-2.87;36.39
42887;BME280;29032;56.028;92.904;2024-03-06T01:13:28;99950.16;;;-2.83;36.41
42887;BME280;29032;56.028;92.904;2024-03-06T01:18:30;99950.94;;;-2.83;35.98
42887;BME280;29032;56.028;92.904;2024-03-06T01:23:34;99947.53;;;-2.96;36.29
42887;BME280;29032;56.028;92.904;2024-03-06T01:28:36;99951.75;;;-3.04;36.09
42887;BME280;29032;56.028;92.904;2024-03-06T01:33:38;99956.78;;;-3.03;36.30
42887;BME280;29032;56.028;92.904;2024-03-06T01:38:42;99952.88;;;-2.92;36.41
42887;BME280;29032;56.028;92.904;2024-03-06T01:43:44;99945.59;;;-2.86;36.74
42887;BME280;29032;56.028;92.904;2024-03-06T01:48:46;99946.25;;;-2.73;35.46
42887;BME280;29032;56.028;92.904;2024-03-06T01:53:50;99949.59;;;-2.69;35.97
42887;BME280;29032;56.028;92.904;2024-03-06T01:58:53;99947.19;;;-2.67;35.42
42887;BME280;29032;56.028;92.904;2024-03-06T02:03:56;99951.91;;;-2.67;35.58
42887;BME280;29032;56.028;92.904;2024-03-06T02:08:59;99951.94;;;-2.58;35.40
42887;BME280;29032;56.028;92.904;2024-03-06T02:14:02;99949.75;;;-2.73;35.50
42887;BME280;29032;56.028;92.904;2024-03-06T02:19:04;99944.41;;;-2.76;35.75
42887;BME280;29032;56.028;92.904;2024-03-06T02:24:09;99942.00;;;-2.74;35.86
42887;BME280;29032;56.028;92.904;2024-03-06T02:29:11;99950.78;;;-2.79;35.93
42887;BME280;29032;56.028;92.904;2024-03-06T02:34:14;99946.84;;;-2.78;35.60
42887;BME280;29032;56.028;92.904;2024-03-06T02:39:17;99936.19;;;-2.76;35.26
42887;BME280;29032;56.028;92.904;2024-03-06T02:44:19;99933.44;;;-2.85;35.47
42887;BME280;29032;56.028;92.904;2024-03-06T02:49:22;99933.13;;;-2.87;35.30
42887;BME280;29032;56.028;92.904;2024-03-06T02:54:25;99933.59;;;-2.80;35.66
42887;BME280;29032;56.028;92.904;2024-03-06T02:59:46;99936.53;;;-2.74;35.03
42887;BME280;29032;56.028;92.904;2024-03-06T03:04:48;99928.25;;;-2.83;35.42
42887;BME280;29032;56.028;92.904;2024-03-06T03:09:52;99919.19;;;-2.71;35.50
42887;BME280;29032;56.028;92.904;2024-03-06T03:14:54;99922.84;;;-2.65;34.88
42887;BME280;29032;56.028;92.904;2024-03-06T03:19:56;99917.84;;;-2.66;35.39
42887;BME280;29032;56.028;92.904;2024-03-06T03:25:00;99919.25;;;-2.53;35.20
42887;BME280;29032;56.028;92.904;2024-03-06T03:30:02;99912.56;;;-2.43;34.74
42887;BME280;29032;56.028;92.904;2024-03-06T03:35:06;99914.53;;;-2.34;34.38
42887;BME280;29032;56.028;92.904;2024-03-06T03:40:10;99918.66;;;-2.38;34.79
42887;BME280;29032;56.028;92.904;2024-03-06T03:45:12;99915.63;;;-2.40;34.28
42887;BME280;29032;56.028;92.904;2024-03-06T03:50:14;99908.91;;;-2.30;34.77
42887;BME280;29032;56.028;92.904;2024-03-06T03:55:18;99911.38;;;-2.32;34.34
42887;BME280;29032;56.028;92.904;2024-03-06T04:00:20;99909.69;;;-2.30;33.69
42887;BME280;29032;56.028;92.904;2024-03-06T04:05:23;99914.09;;;-2.23;34.06
42887;BME280;29032;56.028;92.904;2024-03-06T04:15:47;99899.78;;;-2.00;33.73
42887;BME280;29032;56.028;92.904;2024-03-06T04:20:49;99912.28;;;-1.99;33.50
42887;BME280;29032;56.028;92.904;2024-03-06T04:25:53;99890.50;;;-1.84;33.52
42887;BME280;29032;56.028;92.904;2024-03-06T04:30:55;99898.56;;;-1.62;33.31
42887;BME280;29032;56.028;92.904;2024-03-06T04:35:57;99904.00;;;-1.53;32.96
42887;BME280;29032;56.028;92.904;2024-03-06T04:41:01;99907.06;;;-1.51;32.38
42887;BME280;29032;56.028;92.904;2024-03-06T04:46:03;99897.16;;;-1.57;32.99
42887;BME280;29032;56.028;92.904;2024-03-06T04:51:06;99893.06;;;-1.71;32.22
42887;BME280;29032;56.028;92.904;2024-03-06T04:56:09;99901.31;;;-1.62;32.61
42887;BME280;29032;56.028;92.904;2024-03-06T05:01:12;99895.97;;;-1.66;32.00
42887;BME280;29032;56.028;92.904;2024-03-06T05:06:14;99906.94;;;-1.66;32.07
42887;BME280;29032;56.028;92.904;2024-03-06T05:11:18;99896.09;;;-1.60;32.75
42887;BME280;29032;56.028;92.904;2024-03-06T05:16:20;99895.19;;;-1.66;33.01
42887;BME280;29032;56.028;92.904;2024-03-06T05:21:22;99904.66;;;-1.67;32.86
42887;BME280;29032;56.028;92.904;2024-03-06T05:26:26;99908.00;;;-1.54;33.45
42887;BME280;29032;56.028;92.904;2024-03-06T05:31:28;99900.78;;;-1.42;32.93
42887;BME280;29032;56.028;92.904;2024-03-06T05:36:30;99895.44;;;-1.37;32.53
42887;BME280;29032;56.028;92.904;2024-03-06T05:41:34;99893.25;;;-1.23;32.18
42887;BME280;29032;56.028;92.904;2024-03-06T05:46:36;99892.59;;;-1.09;32.61
42887;BME280;29032;56.028;92.904;2024-03-06T05:51:38;99886.16;;;-0.97;32.05
42887;BME280;29032;56.028;92.904;2024-03-06T05:56:42;99892.81;;;-0.89;32.15
42887;BME280;29032;56.028;92.904;2024-03-06T06:01:44;99885.06;;;-0.66;31.91
42887;BME280;29032;56.028;92.904;2024-03-06T06:06:47;99886.84;;;-0.54;31.93
42887;BME280;29032;56.028;92.904;2024-03-06T06:11:50;99877.59;;;-0.42;31.32
42887;BME280;29032;56.028;92.904;2024-03-06T06:16:52;99874.41;;;-0.26;31.55
42887;BME280;29032;56.028;92.904;2024-03-06T06:21:55;99865.53;;;-0.21;30.48
42887;BME280;29032;56.028;92.904;2024-03-06T06:26:58;99850.03;;;-0.33;30.29
42887;BME280;29032;56.028;92.904;2024-03-06T06:32:00;99858.03;;;-0.44;30.77
42887;BME280;29032;56.028;92.904;2024-03-06T06:37:03;99854.44;;;-0.50;30.86
42887;BME280;29032;56.028;92.904;2024-03-06T06:42:06;99845.50;;;-0.60;30.64
42887;BME280;29032;56.028;92.904;2024-03-06T06:47:08;99841.81;;;-0.81;30.74
42887;BME280;29032;56.028;92.904;2024-03-06T06:52:11;99839.19;;;-0.99;30.84
42887;BME280;29032;56.028;92.904;2024-03-06T06:57:15;99852.31;;;-1.03;31.51
42887;BME280;29032;56.028;92.904;2024-03-06T07:02:17;99850.44;;;-0.97;31.41
42887;BME280;29032;56.028;92.904;2024-03-06T07:07:19;99847.00;;;-0.83;31.47
42887;BME280;29032;56.028;92.904;2024-03-06T07:12:23;99837.59;;;-0.67;31.79
42887;BME280;29032;56.028;92.904;2024-03-06T07:17:26;99836.50;;;-0.60;30.42
42887;BME280;29032;56.028;92.904;2024-03-06T07:22:28;99851.97;;;-0.72;30.76
42887;BME280;29032;56.028;92.904;2024-03-06T07:27:32;99844.53;;;-0.71;31.27
42887;BME280;29032;56.028;92.904;2024-03-06T07:32:34;99845.03;;;-0.82;31.19
42887;BME280;29032;56.028;92.904;2024-03-06T07:37:36;99825.03;;;-0.83;30.90
42887;BME280;29032;56.028;92.904;2024-03-06T07:42:40;99822.09;;;-0.79;31.35
42887;BME280;29032;56.028;92.904;2024-03-06T07:47:42;99822.28;;;-0.83;31.22
42887;BME280;29032;56.028;92.904;2024-03-06T07:52:45;99824.06;;;-0.70;31.10
42887;BME280;29032;56.028;92.904;2024-03-06T07:57:49;99828.13;;;-0.66;31.84
42887;BME280;29032;56.028;92.904;2024-03-06T08:02:51;99822.00;;;-0.61;31.07
42887;BME280;29032;56.028;92.904;2024-03-06T08:07:53;99818.25;;;-0.49;30.94
42887;BME280;29032;56.028;92.904;2024-03-06T08:12:57;99816.19;;;-0.39;30.00
42887;BME280;29032;56.028;92.904;2024-03-06T08:17:59;99808.88;;;-0.42;30.19
42887;BME280;29032;56.028;92.904;2024-03-06T08:23:01;99795.50;;;-0.49;30.13
42887;BME280;29032;56.028;92.904;2024-03-06T08:28:05;99804.66;;;-0.28;30.32
42887;BME280;29032;56.028;92.904;2024-03-06T08:33:07;99794.03;;;-0.21;30.00
42887;BME280;29032;56.028;92.904;2024-03-06T08:38:09;99807.09;;;-0.15;30.14
42887;BME280;29032;56.028;92.904;2024-03-06T08:43:13;99799.75;;;-0.09;29.52
42887;BME280;29032;56.028;92.904;2024-03-06T08:48:15;99801.56;;;-0.06;29.94
42887;BME280;29032;56.028;92.904;2024-03-06T08:53:17;99793.88;;;-0.02;29.10
42887;BME280;29032;56.028;92.904;2024-03-06T08:58:21;99800.34;;;-0.05;29.68
42887;BME280;29032;56.028;92.904;2024-03-06T09:03:23;99799.09;;;-0.04;29.19
42887;BME280;29032;56.028;92.904;2024-03-06T09:08:25;99783.72;;;-0.11;27.89
42887;BME280;29032;56.028;92.904;2024-03-06T09:13:29;99781.72;;;-0.10;28.25
42887;BME280;29032;56.028;92.904;2024-03-06T09:18:31;99799.94;;;-0.13;28.39
42887;BME280;29032;56.028;92.904;2024-03-06T09:23:33;99795.66;;;-0.14;28.16
42887;BME280;29032;56.028;92.904;2024-03-06T09:28:39;99781.72;;;-0.10;28.64
42887;BME280;29032;56.028;92.904;2024-03-06T09:33:41;99781.72;;;-0.10;28.76
42887;BME280;29032;56.028;92.904;2024-03-06T09:39:01;99775.69;;;0.00;28.73
42887;BME280;29032;56.028;92.904;2024-03-06T09:44:05;99778.63;;;0.12;28.56
42887;BME280;29032;56.028;92.904;2024-03-06T09:49:07;99780.81;;;0.08;27.70
42887;BME280;29032;56.028;92.904;2024-03-06T09:54:12;99780.44;;;-0.00;28.01
42887;BME280;29032;56.028;92.904;2024-03-06T09:59:15;99777.84;;;0.11;28.26
42887;BME280;29032;56.028;92.904;2024-03-06T10:04:19;99768.28;;;0.21;27.93
42887;BME280;29032;56.028;92.904;2024-03-06T10:09:21;99774.34;;;0.25;28.25
42887;BME280;29032;56.028;92.904;2024-03-06T10:14:25;99777.06;;;0.40;28.94
42887;BME280;29032;56.028;92.904;2024-03-06T10:19:28;99767.88;;;0.43;27.78
42887;BME280;29032;56.028;92.904;2024-03-06T10:24:31;99770.81;;;0.40;27.90
42887;BME280;29032;56.028;92.904;2024-03-06T10:29:34;99767.13;;;0.43;27.85
42887;BME280;29032;56.028;92.904;2024-03-06T10:34:38;99767.66;;;0.47;27.70
42887;BME280;29032;56.028;92.904;2024-03-06T10:39:42;99780.75;;;0.52;27.74
42887;BME280;29032;56.028;92.904;2024-03-06T10:44:51;99788.44;;;0.63;28.14
42887;BME280;29032;56.028;92.904;2024-03-06T10:49:55;99775.25;;;0.52;26.99
42887;BME280;29032;56.028;92.904;2024-03-06T10:55:02;99779.06;;;0.40;27.51
42887;BME280;29032;56.028;92.904;2024-03-06T11:00:08;99763.44;;;0.31;27.74
42887;BME280;29032;56.028;92.904;2024-03-06T11:05:11;99760.31;;;0.23;27.40
42887;BME280;29032;56.028;92.904;2024-03-06T11:10:13;99768.47;;;0.18;27.20
42887;BME280;29032;56.028;92.904;2024-03-06T11:15:16;99769.22;;;0.18;27.94
42887;BME280;29032;56.028;92.904;2024-03-06T11:20:19;99770.19;;;0.15;27.55
42887;BME280;29032;56.028;92.904;2024-03-06T11:31:13;99775.69;;;0.15;27.88
42887;BME280;29032;56.028;92.904;2024-03-06T11:36:20;99779.28;;;0.21;28.33
42887;BME280;29032;56.028;92.904;2024-03-06T11:41:23;99779.09;;;0.25;28.28
42887;BME280;29032;56.028;92.904;2024-03-06T11:51:53;99786.97;;;0.17;27.39
42887;BME280;29032;56.028;92.904;2024-03-06T11:56:56;99780.44;;;0.15;27.60
42887;BME280;29032;56.028;92.904;2024-03-06T12:01:59;99792.00;;;0.19;27.78
42887;BME280;29032;56.028;92.904;2024-03-06T12:07:03;99793.31;;;0.23;27.54
42887;BME280;29032;56.028;92.904;2024-03-06T12:12:06;99797.31;;;0.22;27.85
42887;BME280;29032;56.028;92.904;2024-03-06T12:17:12;99805.34;;;0.41;28.11
42887;BME280;29032;56.028;92.904;2024-03-06T12:22:16;99805.44;;;0.46;27.68
42887;BME280;29032;56.028;92.904;2024-03-06T12:27:22;99802.41;;;0.44;27.66
42887;BME280;29032;56.028;92.904;2024-03-06T12:32:24;99811.16;;;0.43;28.30
42887;BME280;29032;56.028;92.904;2024-03-06T12:37:31;99806.88;;;0.56;28.21
42887;BME280;29032;56.028;92.904;2024-03-06T12:42:33;99813.19;;;0.77;28.63
42887;BME280;29032;56.028;92.904;2024-03-06T12:47:35;99810.97;;;0.31;29.50
42887;BME280;29032;56.028;92.904;2024-03-06T12:52:39;99816.75;;;0.19;30.00
42887;BME280;29032;56.028;92.904;2024-03-06T12:57:41;99820.84;;;0.09;30.23
42887;BME280;29032;56.028;92.904;2024-03-06T13:02:43;99826.22;;;0.03;29.73
42887;BME280;29032;56.028;92.904;2024-03-06T13:07:47;99824.72;;;0.02;31.61
42887;BME280;29032;56.028;92.904;2024-03-06T13:12:49;99821.38;;;-0.02;31.61
42887;BME280;29032;56.028;92.904;2024-03-06T13:17:51;99815.31;;;-0.06;30.38
42887;BME280;29032;56.028;92.904;2024-03-06T13:22:55;99825.19;;;0.00;31.00
42887;BME280;29032;56.028;92.904;2024-03-06T13:27:57;99820.63;;;-0.03;31.48
42887;BME280;29032;56.028;92.904;2024-03-06T13:32:59;99816.47;;;0.02;30.49
42887;BME280;29032;56.028;92.904;2024-03-06T13:38:03;99819.69;;;0.15;31.69
42887;BME280;29032;56.028;92.904;2024-03-06T13:43:05;99808.50;;;0.04;31.06
42887;BME280;29032;56.028;92.904;2024-03-06T13:48:14;99820.47;;;0.16;30.80
42887;BME280;29032;56.028;92.904;2024-03-06T13:53:18;99825.09;;;-0.05;30.80
42887;BME280;29032;56.028;92.904;2024-03-06T13:58:20;99831.94;;;-0.25;30.42
42887;BME280;29032;56.028;92.904;2024-03-06T14:03:22;99832.09;;;-0.43;31.24
42887;BME280;29032;56.028;92.904;2024-03-06T14:08:26;99837.97;;;-0.50;30.91
42887;BME280;29032;56.028;92.904;2024-03-06T14:13:28;99830.44;;;-0.64;31.68
42887;BME280;29032;56.028;92.904;2024-03-06T14:18:30;99830.19;;;-0.76;31.39
42887;BME280;29032;56.028;92.904;2024-03-06T14:23:33;99830.66;;;-0.77;31.92
42887;BME280;29032;56.028;92.904;2024-03-06T14:28:36;99840.28;;;-0.82;33.41
42887;BME280;29032;56.028;92.904;2024-03-06T14:33:38;99833.56;;;-0.81;32.21
42887;BME280;29032;56.028;92.904;2024-03-06T14:38:43;99840.00;;;-0.84;32.13
42887;BME280;29032;56.028;92.904;2024-03-06T14:43:45;99836.72;;;-0.97;32.71
42887;BME280;29032;56.028;92.904;2024-03-06T14:48:47;99838.88;;;-1.01;32.84
42887;BME280;29032;56.028;92.904;2024-03-06T14:53:50;99844.44;;;-0.86;32.32
42887;BME280;29032;56.028;92.904;2024-03-06T14:58:53;99846.38;;;-0.78;31.85
42887;BME280;29032;56.028;92.904;2024-03-06T15:03:55;99853.19;;;-0.73;31.61
42887;BME280;29032;56.028;92.904;2024-03-06T15:08:58;99845.72;;;-0.72;31.89
42887;BME280;29032;56.028;92.904;2024-03-06T15:14:01;99839.59;;;-0.67;31.56
42887;BME280;29032;56.028;92.904;2024-03-06T15:19:03;99850.50;;;-0.58;31.06
42887;BME280;29032;56.028;92.904;2024-03-06T15:24:07;99846.91;;;-0.64;31.49
42887;BME280;29032;56.028;92.904;2024-03-06T15:29:09;99857.19;;;-0.74;32.11
42887;BME280;29032;56.028;92.904;2024-03-06T15:34:11;99844.31;;;-0.68;31.92
42887;BME280;29032;56.028;92.904;2024-03-06T15:39:15;99855.09;;;-0.55;31.66
42887;BME280;29032;56.028;92.904;2024-03-06T15:44:17;99850.63;;;-0.53;31.63
42887;BME280;29032;56.028;92.904;2024-03-06T15:49:20;99858.41;;;-0.51;31.72
42887;BME280;29032;56.028;92.904;2024-03-06T15:54:24;99860.00;;;-0.59;31.55
42887;BME280;29032;56.028;92.904;2024-03-06T15:59:26;99857.13;;;-0.89;32.67
42887;BME280;29032;56.028;92.904;2024-03-06T16:04:28;99853.53;;;-1.04;33.69
42887;BME280;29032;56.028;92.904;2024-03-06T16:09:32;99849.50;;;-0.94;32.94
42887;BME280;29032;56.028;92.904;2024-03-06T16:14:34;99857.94;;;-0.97;32.86
42887;BME280;29032;56.028;92.904;2024-03-06T16:19:36;99853.06;;;-1.03;33.58
42887;BME280;29032;56.028;92.904;2024-03-06T16:24:40;99862.66;;;-0.98;33.44
42887;BME280;29032;56.028;92.904;2024-03-06T16:29:42;99866.50;;;-1.05;32.87
42887;BME280;29032;56.028;92.904;2024-03-06T16:34:44;99865.19;;;-1.18;33.10
42887;BME280;29032;56.028;92.904;2024-03-06T16:39:47;99856.94;;;-1.18;33.60
42887;BME280;29032;56.028;92.904;2024-03-06T16:44:50;99864.56;;;-1.13;33.72
42887;BME280;29032;56.028;92.904;2024-03-06T16:49:52;99855.09;;;-1.12;33.14
42887;BME280;29032;56.028;92.904;2024-03-06T16:54:55;99865.41;;;-0.98;33.32
42887;BME280;29032;56.028;92.904;2024-03-06T16:59:58;99862.94;;;-0.96;33.15
42887;BME280;29032;56.028;92.904;2024-03-06T17:05:00;99862.19;;;-0.96;32.68
42887;BME280;29032;56.028;92.904;2024-03-06T17:10:04;99868.09;;;-0.89;33.01
42887;BME280;29032;56.028;92.904;2024-03-06T17:15:09;99869.91;;;-0.86;34.19
42887;BME280;29032;56.028;92.904;2024-03-06T17:20:11;99877.84;;;-0.88;33.26
42887;BME280;29032;56.028;92.904;2024-03-06T17:25:14;99870.69;;;-0.85;33.66
42887;BME280;29032;56.028;92.904;2024-03-06T17:30:17;99870.56;;;-0.91;33.24
42887;BME280;29032;56.028;92.904;2024-03-06T17:35:19;99866.75;;;-0.93;32.88
42887;BME280;29032;56.028;92.904;2024-03-06T17:40:22;99865.06;;;-0.91;33.38
42887;BME280;29032;56.028;92.904;2024-03-06T17:45:25;99854.09;;;-1.00;33.55
42887;BME280;29032;56.028;92.904;2024-03-06T17:50:27;99853.06;;;-1.03;34.81
42887;BME280;29032;56.028;92.904;2024-03-06T17:55:31;99855.06;;;-1.03;34.79
42887;BME280;29032;56.028;92.904;2024-03-06T18:00:33;99856.63;;;-1.11;35.26
42887;BME280;29032;56.028;92.904;2024-03-06T18:05:35;99852.81;;;-1.14;35.37
42887;BME280;29032;56.028;92.904;2024-03-06T18:10:39;99859.41;;;-1.20;35.04
42887;BME280;29032;56.028;92.904;2024-03-06T18:15:41;99855.16;;;-1.31;35.35
42887;BME280;29032;56.028;92.904;2024-03-06T18:20:43;99857.63;;;-1.33;35.36
42887;BME280;29032;56.028;92.904;2024-03-06T18:25:47;99852.47;;;-1.40;35.78
42887;BME280;29032;56.028;92.904;2024-03-06T18:30:49;99853.41;;;-1.52;35.87
42887;BME280;29032;56.028;92.904;2024-03-06T18:35:51;99848.22;;;-1.50;35.29
42887;BME280;29032;56.028;92.904;2024-03-06T18:40:55;99847.88;;;-1.43;36.24
42887;BME280;29032;56.028;92.904;2024-03-06T18:51:18;99836.38;;;-1.65;36.31
42887;BME280;29032;56.028;92.904;2024-03-06T18:56:21;99841.28;;;-1.78;36.09
42887;BME280;29032;56.028;92.904;2024-03-06T19:01:24;99834.47;;;-2.10;36.39
42887;BME280;29032;56.028;92.904;2024-03-06T19:06:26;99833.72;;;-2.29;36.77
42887;BME280;29032;56.028;92.904;2024-03-06T19:11:29;99833.09;;;-2.43;37.80
42887;BME280;29032;56.028;92.904;2024-03-06T19:16:32;99839.66;;;-2.40;37.52
42887;BME280;29032;56.028;92.904;2024-03-06T19:21:34;99828.38;;;-2.24;37.53
42887;BME280;29032;56.028;92.904;2024-03-06T19:26:37;99828.53;;;-2.09;37.18
42887;BME280;29032;56.028;92.904;2024-03-06T19:31:40;99832.47;;;-2.01;36.93
42887;BME280;29032;56.028;92.904;2024-03-06T19:36:43;99822.13;;;-1.97;37.20
42887;BME280;29032;56.028;92.904;2024-03-06T19:41:46;99819.06;;;-1.99;37.24
42887;BME280;29032;56.028;92.904;2024-03-06T19:46:48;99817.09;;;-2.07;37.71
42887;BME280;29032;56.028;92.904;2024-03-06T19:52:09;99817.09;;;-1.98;36.99
42887;BME280;29032;56.028;92.904;2024-03-06T19:57:12;99801.59;;;-2.10;37.96
42887;BME280;29032;56.028;92.904;2024-03-06T20:02:15;99807.22;;;-2.05;37.87
42887;BME280;29032;56.028;92.904;2024-03-06T20:07:17;99801.72;;;-1.96;37.89
42887;BME280;29032;56.028;92.904;2024-03-06T20:12:20;99809.00;;;-1.83;37.90
42887;BME280;29032;56.028;92.904;2024-03-06T20:17:22;99801.06;;;-1.81;37.20
42887;BME280;29032;56.028;92.904;2024-03-06T20:22:25;99798.63;;;-1.79;36.68
42887;BME280;29032;56.028;92.904;2024-03-06T20:27:28;99794.50;;;-1.75;36.67
42887;BME280;29032;56.028;92.904;2024-03-06T20:32:30;99794.66;;;-1.78;36.85
42887;BME280;29032;56.028;92.904;2024-03-06T20:37:32;99786.44;;;-1.88;37.31
42887;BME280;29032;56.028;92.904;2024-03-06T20:42:36;99787.81;;;-1.92;37.56
42887;BME280;29032;56.028;92.904;2024-03-06T20:47:39;99791.66;;;-1.99;37.53
42887;BME280;29032;56.028;92.904;2024-03-06T20:52:41;99779.81;;;-2.05;37.18
42887;BME280;29032;56.028;92.904;2024-03-06T20:57:45;99782.84;;;-2.12;37.70
42887;BME280;29032;56.028;92.904;2024-03-06T21:02:48;99780.09;;;-2.21;37.79
42887;BME280;29032;56.028;92.904;2024-03-06T21:07:50;99768.25;;;-2.36;38.19
42887;BME280;29032;56.028;92.904;2024-03-06T21:12:54;99766.88;;;-2.41;38.14
42887;BME280;29032;56.028;92.904;2024-03-06T21:17:56;99773.75;;;-2.46;38.57
42887;BME280;29032;56.028;92.904;2024-03-06T21:22:58;99762.78;;;-2.46;37.82
42887;BME280;29032;56.028;92.904;2024-03-06T21:28:01;99764.44;;;-2.48;38.33
42887;BME280;29032;56.028;92.904;2024-03-06T21:33:04;99761.13;;;-2.52;37.71
42887;BME280;29032;56.028;92.904;2024-03-06T21:38:06;99755.78;;;-2.56;38.14
42887;BME280;29032;56.028;92.904;2024-03-06T21:43:10;99757.91;;;-2.51;38.07
42887;BME280;29032;56.028;92.904;2024-03-06T21:48:12;99747.13;;;-2.45;38.35
42887;BME280;29032;56.028;92.904;2024-03-06T21:53:14;99741.03;;;-2.40;37.84
42887;BME280;29032;56.028;92.904;2024-03-06T21:58:18;99744.19;;;-2.42;37.77
42887;BME280;29032;56.028;92.904;2024-03-06T22:03:20;99740.88;;;-2.46;38.24
42887;BME280;29032;56.028;92.904;2024-03-06T22:08:40;99743.00;;;-2.31;37.33
42887;BME280;29032;56.028;92.904;2024-03-06T22:13:44;99733.56;;;-2.39;38.60
42887;BME280;29032;56.028;92.904;2024-03-06T22:18:46;99731.59;;;-2.39;38.11
42887;BME280;29032;56.028;92.904;2024-03-06T22:23:48;99732.06;;;-2.40;38.40
42887;BME280;29032;56.028;92.904;2024-03-06T22:28:52;99728.69;;;-2.45;38.81
42887;BME280;29032;56.028;92.904;2024-03-06T22:33:54;99724.16;;;-2.48;38.05
42887;BME280;29032;56.028;92.904;2024-03-06T22:38:56;99715.28;;;-2.43;38.28
42887;BME280;29032;56.028;92.904;2024-03-06T22:44:00;99708.28;;;-2.44;38.23
42887;BME280;29032;56.028;92.904;2024-03-06T22:49:02;99707.72;;;-2.48;38.52
42887;BME280;29032;56.028;92.904;2024-03-06T22:54:04;99707.25;;;-2.46;38.41
42887;BME280;29032;56.028;92.904;2024-03-06T22:59:08;99706.34;;;-2.52;38.43
42887;BME280;29032;56.028;92.904;2024-03-06T23:04:10;99699.94;;;-2.58;38.50
42887;BME280;29032;56.028;92.904;2024-03-06T23:09:12;99693.09;;;-2.54;38.12
42887;BME280;29032;56.028;92.904;2024-03-06T23:14:16;99683.81;;;-2.47;38.27
42887;BME280;29032;56.028;92.904;2024-03-06T23:19:18;99682.59;;;-2.46;38.21
42887;BME280;29032;56.028;92.904;2024-03-06T23:24:20;99684.56;;;-2.47;37.94
42887;BME280;29032;56.028;92.904;2024-03-06T23:29:24;99672.09;;;-2.57;39.13
42887;BME280;29032;56.028;92.904;2024-03-06T23:34:26;99673.34;;;-2.67;38.97
42887;BME280;29032;56.028;92.904;2024-03-06T23:39:28;99680.91;;;-2.62;38.93
42887;BME280;29032;56.028;92.904;2024-03-06T23:44:32;99675.13;;;-2.55;38.60
42887;BME280;29032;56.028;92.904;2024-03-06T23:49:34;99667.84;;;-2.67;38.37
42887;BME280;29032;56.028;92.904;2024-03-06T23:54:36;99665.72;;;-2.72;38.62
42887;BME280;29032;56.028;92.904;2024-03-06T23:59:40;99658.56;;;-2.70;38.63
